Lubbock Preston Smith International Airport Lubbock US
ICAO: KLBB
IATA: LBB
Category: Large
Scheduled Services: Yes

Elevation: 3282 ft
TransAlt. 18000 ft.

Airport Communications:
APP:119.2
ATIS:125.3
CLNC DEL:125.8
DEP:119.2
GND:121.9
FORT WORTH RDO:122.55
TWR:120.5
UNICOM:122.95

KLBB Zoom In..

If Map Doesn't Load, Click Here

Runways:

(A) RW 08 length 8003 ft width 150 ft
---- / hdg 81

(B) RW 17L length 2891 ft width 75 ft
---- / hdg 171

(C) RW 17R length 11500 ft width 150 ft
ILS 111.70 / hdg 171

(D) RW 26 length 8003 ft width 150 ft
ILS 111.90 / hdg 261

(E) RW 35L length 11500 ft width 150 ft
---- / hdg 351

(F) RW 35R length 2891 ft width 75 ft
---- / hdg 351

Location; KLBB
Day. 26 / Time. 09.53 Zulu
* Altimeter: 30.20
* Temperature: 12° c. 53.6°f.
* Wind from: 030° Speed 17 kn.
Dewpoint: 11° c.
Visibility: 7 Statute Miles.
Clouds: Broken 700 ft.
Clouds: Broken 2100 ft.
Clouds: Overcast 9000 ft.
Conditions: Rain.

KLBB 260953Z 03017KT 7SM RA BKN007 BKN021 OVC090 12/11 A3020 RMK AO2 PK WND 02026/0929 LTG DSNT SW AND W TSE10 SLP185 P0015 T01220111


Wind From 030°
Speed 17 kn.

 
 
jpsmedia.com for Web Design worldairports.se 2018   terms of use